Time;durP1;ratioP1;P1;durP2;ratioP2;P2;SDS_P1;SDS_P2;PMS_P1;PMS_P2;Temp;Humidity;BMP_temperature;BMP_pressure;BME280_temperature;BME280_humidity;BME280_pressure;Samples;Min_cycle;Max_cycle;Signal;HPM_P1;HPM_P2
2022/08/30 00:03:15;;;;;;;6.60;2.60;;;;;;;18.11;66.25;101700.13;5034302;28;20036;-73
2022/08/30 00:05:42;;;;;;;10.18;2.97;;;;;;;18.08;66.62;101699.50;5035655;28;20524;-73
2022/08/30 00:08:08;;;;;;;6.63;2.22;;;;;;;18.06;66.72;101700.66;5039246;28;20029;-74
2022/08/30 00:10:33;;;;;;;7.70;3.45;;;;;;;18.06;66.93;101693.63;5040573;28;20574;-74
2022/08/30 00:12:59;;;;;;;7.97;2.60;;;;;;;18.04;67.14;101697.41;5042379;28;20033;-74
2022/08/30 00:15:26;;;;;;;6.65;3.10;;;;;;;18.11;67.25;101702.75;5042481;28;20423;-73
2022/08/30 00:17:52;;;;;;;10.00;2.67;;;;;;;18.08;67.49;101696.03;5039953;28;20811;-73
2022/08/30 00:20:22;;;;;;;6.60;2.78;;;;;;;18.11;67.38;101703.56;5038344;28;20037;-74
2022/08/30 00:22:48;;;;;;;10.13;3.13;;;;;;;18.14;67.77;101694.50;5039528;28;20039;-72
2022/08/30 00:25:14;;;;;;;5.45;2.80;;;;;;;18.13;67.76;101693.69;5038377;28;20021;-74
2022/08/30 00:27:41;;;;;;;6.15;3.10;;;;;;;18.13;68.08;101701.56;5041123;28;20029;-71
2022/08/30 00:30:08;;;;;;;7.30;2.53;;;;;;;18.11;68.42;101694.88;5040885;28;20088;-72
2022/08/30 00:32:33;;;;;;;5.88;2.83;;;;;;;18.14;68.29;101702.38;5020365;28;20416;-74
2022/08/30 00:34:59;;;;;;;7.40;2.95;;;;;;;18.09;68.54;101700.31;5038925;28;20021;-73
2022/08/30 00:37:25;;;;;;;8.50;2.92;;;;;;;18.06;68.90;101704.13;5044094;28;20619;-73
2022/08/30 00:39:50;;;;;;;7.25;3.20;;;;;;;18.14;68.72;101702.38;5039753;28;20052;-73
2022/08/30 00:42:17;;;;;;;5.85;2.83;;;;;;;18.09;68.80;101703.75;5040969;28;20558;-73
2022/08/30 00:44:42;;;;;;;7.10;2.80;;;;;;;18.15;68.90;101710.06;5040532;28;20111;-73
2022/08/30 00:47:09;;;;;;;10.30;3.00;;;;;;;18.13;69.07;101708.63;5038634;28;20424;-73
2022/08/30 00:49:36;;;;;;;10.00;3.70;;;;;;;18.14;69.14;101715.50;5039613;28;20044;-72
2022/08/30 00:52:03;;;;;;;9.23;2.97;;;;;;;18.12;69.18;101712.25;5037603;28;20033;-72
2022/08/30 00:54:30;;;;;;;6.10;2.50;;;;;;;18.09;69.31;101721.31;5033211;28;20037;-73
2022/08/30 00:56:56;;;;;;;8.70;3.45;;;;;;;18.08;69.66;101717.03;5034485;28;20553;-72
2022/08/30 00:59:23;;;;;;;7.93;2.85;;;;;;;18.06;69.77;101709.38;5036709;28;20504;-72
2022/08/30 01:01:49;;;;;;;5.30;3.05;;;;;;;18.05;69.75;101715.59;5035734;28;20055;-72
2022/08/30 01:04:18;;;;;;;10.10;3.88;;;;;;;18.07;69.81;101712.81;5019424;28;20455;-73
2022/08/30 01:06:45;;;;;;;8.52;2.67;;;;;;;18.12;69.75;101712.25;5035933;28;20036;-72
2022/08/30 01:09:12;;;;;;;8.23;3.35;;;;;;;18.12;69.96;101712.25;5032335;28;20033;-72
2022/08/30 01:11:40;;;;;;;6.15;3.05;;;;;;;18.08;70.08;101710.00;5038239;28;20113;-73
2022/08/30 01:14:07;;;;;;;5.03;2.92;;;;;;;18.03;70.56;101714.16;5035177;28;20117;-73
2022/08/30 01:16:35;;;;;;;7.95;3.03;;;;;;;18.03;70.61;101711.53;5036563;28;20421;-72
2022/08/30 01:19:01;;;;;;;14.07;3.58;;;;;;;18.03;70.48;101714.97;5034690;28;20602;-72
2022/08/30 01:21:35;;;;;;;11.57;4.35;;;;;;;18.13;70.40;101717.31;5036642;28;20338;-70
2022/08/30 01:24:03;;;;;;;11.25;4.82;;;;;;;18.00;70.64;101712.72;5038300;28;20099;-73
2022/08/30 01:26:29;;;;;;;10.77;3.90;;;;;;;17.98;70.74;101714.69;5050541;28;20044;-74
2022/08/30 01:28:59;;;;;;;11.73;3.30;;;;;;;17.93;71.06;101722.31;5041177;28;20416;-73
2022/08/30 01:31:25;;;;;;;5.57;3.25;;;;;;;17.94;71.03;101716.06;5036818;28;20136;-73
2022/08/30 01:33:51;;;;;;;5.45;2.75;;;;;;;17.88;71.10;101725.47;5035678;28;20108;-73
2022/08/30 01:36:17;;;;;;;8.50;3.30;;;;;;;17.84;71.36;101721.59;5033880;28;20045;-74
2022/08/30 01:38:55;;;;;;;7.72;2.90;;;;;;;17.90;71.26;101733.19;5038371;28;20248;-72
2022/08/30 01:41:29;;;;;;;9.15;3.17;;;;;;;17.81;71.54;101727.16;5034390;28;20036;-74
2022/08/30 01:43:57;;;;;;;10.70;3.30;;;;;;;17.88;71.32;101725.47;5023162;28;20128;-73
2022/08/30 01:46:27;;;;;;;12.70;3.25;;;;;;;17.83;71.59;101725.19;5037187;28;20039;-73
2022/08/30 01:48:55;;;;;;;7.28;3.53;;;;;;;17.82;71.80;101725.34;5036304;28;20044;-73
2022/08/30 01:51:23;;;;;;;6.47;3.67;;;;;;;17.75;72.12;101720.03;5050825;28;20021;-73
2022/08/30 01:53:49;;;;;;;7.88;2.83;;;;;;;17.72;72.09;101715.13;5036990;28;20116;-74
2022/08/30 01:56:15;;;;;;;7.75;3.40;;;;;;;17.69;72.45;101716.31;5034624;28;20132;-74
2022/08/30 01:58:42;;;;;;;11.27;3.78;;;;;;;17.69;72.70;101728.63;5038426;28;20406;-74
2022/08/30 02:01:11;;;;;;;6.63;2.90;;;;;;;17.65;72.85;101722.94;5034741;28;20031;-73
2022/08/30 02:03:37;;;;;;;10.07;3.85;;;;;;;17.65;72.86;101722.94;5036373;28;20025;-74
2022/08/30 02:06:06;;;;;;;8.13;3.30;;;;;;;17.64;73.05;101725.72;5036330;28;20123;-73
2022/08/30 02:08:32;;;;;;;9.20;3.25;;;;;;;17.60;73.22;101716.59;5048843;28;20078;-73
2022/08/30 02:10:58;;;;;;;7.13;3.75;;;;;;;17.54;73.50;101717.28;5034621;28;20025;-73
2022/08/30 02:13:24;;;;;;;6.75;3.83;;;;;;;17.52;73.60;101725.38;5035654;28;20575;-74
2022/08/30 02:15:49;;;;;;;7.45;3.65;;;;;;;17.45;73.81;101719.19;5034858;28;20088;-73
2022/08/30 02:18:15;;;;;;;7.10;3.42;;;;;;;17.44;74.04;101722.81;5034685;28;20036;-73
2022/08/30 02:20:40;;;;;;;8.93;3.50;;;;;;;17.45;73.93;101719.19;5031026;28;20030;-73
2022/08/30 02:23:06;;;;;;;11.02;4.15;;;;;;;17.46;74.02;101720.81;5037367;28;20037;-73
2022/08/30 02:25:31;;;;;;;9.18;4.00;;;;;;;17.54;73.52;101720.75;5032386;28;20025;-73
2022/08/30 02:27:57;;;;;;;10.13;3.72;;;;;;;17.57;73.61;101724.81;5033600;28;20374;-73
2022/08/30 02:30:22;;;;;;;10.73;3.72;;;;;;;17.42;74.44;101720.38;5031296;28;20072;-73
2022/08/30 02:32:48;;;;;;;14.73;4.40;;;;;;;17.42;74.32;101717.75;5037189;28;20040;-73
2022/08/30 02:35:13;;;;;;;9.07;3.50;;;;;;;17.48;74.13;101717.03;5034685;28;20091;-73
2022/08/30 02:37:39;;;;;;;6.22;3.70;;;;;;;17.47;74.38;101711.97;5032659;28;20083;-70
2022/08/30 02:40:06;;;;;;;9.23;3.67;;;;;;;17.46;74.14;101715.56;5031951;28;20428;-73
2022/08/30 02:42:32;;;;;;;9.55;5.03;;;;;;;17.37;74.48;101708.81;5032223;28;20275;-71
2022/08/30 02:44:58;;;;;;;11.13;3.80;;;;;;;17.30;74.93;101708.69;5033069;28;20074;-74
2022/08/30 02:47:23;;;;;;;6.32;2.90;;;;;;;17.28;75.19;101710.69;5031292;28;20050;-74
2022/08/30 02:49:49;;;;;;;10.00;3.92;;;;;;;17.30;75.02;101700.81;5033268;28;20037;-73
2022/08/30 02:52:14;;;;;;;11.55;3.70;;;;;;;17.35;75.00;101714.22;5032865;28;20042;-73
2022/08/30 02:54:39;;;;;;;6.10;2.92;;;;;;;17.30;75.05;101701.63;5016053;28;20017;-73
2022/08/30 02:57:05;;;;;;;7.75;3.78;;;;;;;17.26;75.32;101703.00;5032842;28;20508;-74
2022/08/30 02:59:32;;;;;;;7.72;3.75;;;;;;;17.24;75.34;101698.94;5030142;28;20045;-73
2022/08/30 03:01:57;;;;;;;7.78;3.35;;;;;;;17.24;75.36;101697.13;5032458;28;20095;-74
2022/08/30 03:04:22;;;;;;;7.25;3.83;;;;;;;17.24;75.48;101696.31;5033596;28;20087;-74
2022/08/30 03:06:48;;;;;;;7.93;3.85;;;;;;;17.25;75.28;101690.91;5031166;28;20024;-74
2022/08/30 03:09:13;;;;;;;6.50;3.45;;;;;;;17.18;75.92;101691.75;5031727;28;20022;-73
2022/08/30 03:11:40;;;;;;;5.10;3.30;;;;;;;17.18;75.92;101689.13;5036709;28;20033;-73
2022/08/30 03:14:06;;;;;;;5.28;3.35;;;;;;;17.13;75.98;101700.97;5038602;28;20033;-74
2022/08/30 03:16:31;;;;;;;6.00;3.70;;;;;;;17.10;76.15;101693.47;5036542;28;20033;-74
2022/08/30 03:18:57;;;;;;;6.93;3.50;;;;;;;17.08;76.32;101697.25;5021495;28;20036;-74
2022/08/30 03:21:22;;;;;;;6.53;3.25;;;;;;;17.05;76.51;101692.38;5039220;28;20413;-74
2022/08/30 03:23:48;;;;;;;10.05;4.30;;;;;;;17.03;76.62;101689.13;5051395;28;20044;-74
2022/08/30 03:26:13;;;;;;;9.32;4.10;;;;;;;17.07;76.50;101688.59;5036369;28;20052;-73
2022/08/30 03:28:42;;;;;;;6.20;3.50;;;;;;;17.06;76.67;101691.38;5030370;28;20664;-73
2022/08/30 03:31:08;;;;;;;10.60;3.40;;;;;;;17.02;76.69;101690.91;5021502;28;20037;-74
2022/08/30 03:33:35;;;;;;;6.55;3.05;;;;;;;16.97;77.01;101695.06;5030041;28;20043;-73
2022/08/30 03:36:00;;;;;;;8.88;3.40;;;;;;;16.95;77.05;101695.22;5038357;28;20025;-74
2022/08/30 03:38:26;;;;;;;8.98;4.13;;;;;;;17.04;76.73;101691.56;5035430;28;20345;-73
2022/08/30 03:40:51;;;;;;;7.35;3.38;;;;;;;16.96;76.93;101688.19;5037810;28;20146;-74
2022/08/30 03:43:17;;;;;;;5.47;3.40;;;;;;;16.96;77.22;101688.19;5034828;28;20032;-74
2022/08/30 03:45:43;;;;;;;7.88;3.30;;;;;;;16.86;77.61;101684.03;5036289;28;20485;-74
2022/08/30 03:48:09;;;;;;;7.68;3.53;;;;;;;16.91;77.38;101688.72;5036160;28;20037;-73
2022/08/30 03:50:35;;;;;;;5.65;3.00;;;;;;;16.86;77.59;101688.44;5036069;28;20416;-74
2022/08/30 03:53:01;;;;;;;9.65;4.07;;;;;;;16.88;77.58;101684.66;5036402;28;20481;-74
2022/08/30 03:55:28;;;;;;;12.25;4.40;;;;;;;16.97;77.31;101687.19;5035467;28;20036;-74
2022/08/30 03:57:54;;;;;;;7.53;3.95;;;;;;;16.89;77.55;101691.50;5037158;28;20032;-73
2022/08/30 04:00:19;;;;;;;8.20;3.30;;;;;;;16.95;77.44;101694.41;5032095;28;20445;-74
2022/08/30 04:02:45;;;;;;;11.55;3.67;;;;;;;16.92;77.52;101691.16;5034679;28;20032;-73
2022/08/30 04:05:12;;;;;;;7.30;3.67;;;;;;;16.84;77.97;101687.78;5037550;28;20497;-73
2022/08/30 04:07:38;;;;;;;6.57;3.97;;;;;;;16.82;77.98;101690.59;5031259;28;20149;-74
2022/08/30 04:10:06;;;;;;;7.03;4.68;;;;;;;16.85;77.98;101690.22;5037670;28;20556;-73
2022/08/30 04:12:32;;;;;;;9.70;4.53;;;;;;;16.83;78.12;101694.03;5033631;28;20136;-73
2022/08/30 04:14:57;;;;;;;8.90;3.80;;;;;;;16.79;78.13;101696.16;5037985;28;20856;-74
2022/08/30 04:17:23;;;;;;;7.40;3.35;;;;;;;16.76;78.30;101700.91;5037320;28;20064;-73
2022/08/30 04:19:48;;;;;;;6.25;3.10;;;;;;;16.77;78.22;101699.94;5040448;28;20060;-73
2022/08/30 04:22:14;;;;;;;11.15;4.22;;;;;;;16.72;78.58;101706.50;5037801;28;20238;-73
2022/08/30 04:24:40;;;;;;;4.60;3.05;;;;;;;16.74;78.45;101707.16;5037635;28;20641;-74
2022/08/30 04:27:07;;;;;;;7.32;4.20;;;;;;;16.73;78.73;101702.91;5037937;28;20028;-74
2022/08/30 04:29:33;;;;;;;5.68;3.97;;;;;;;16.70;78.83;101703.25;5036132;28;20025;-73
2022/08/30 04:31:59;;;;;;;11.88;4.15;;;;;;;16.70;78.56;101705.06;5036180;28;20036;-74
2022/08/30 04:34:25;;;;;;;4.35;3.03;;;;;;;16.67;78.77;101706.22;5036465;28;20040;-73
2022/08/30 04:36:50;;;;;;;7.13;3.28;;;;;;;16.77;78.26;101702.56;5036120;28;20041;-74
2022/08/30 04:39:18;;;;;;;7.68;3.65;;;;;;;16.67;78.75;101706.22;5038770;28;20040;-73
2022/08/30 04:41:44;;;;;;;7.25;4.35;;;;;;;16.65;78.82;101702.13;5033687;28;20037;-74
2022/08/30 04:44:09;;;;;;;7.03;3.50;;;;;;;16.65;78.77;101707.38;5034979;28;20040;-74
2022/08/30 04:46:35;;;;;;;5.40;3.42;;;;;;;16.61;78.96;101704.28;5036120;28;20048;-73
2022/08/30 04:49:01;;;;;;;8.50;3.85;;;;;;;16.67;78.93;101711.47;5038314;28;20016;-73
2022/08/30 04:51:27;;;;;;;7.90;4.32;;;;;;;16.65;78.69;101718.69;5036284;28;20049;-73
2022/08/30 04:53:53;;;;;;;5.40;3.63;;;;;;;16.58;79.13;101716.94;5036596;28;20027;-73
2022/08/30 04:56:23;;;;;;;8.18;3.70;;;;;;;16.61;79.16;101729.66;5036965;28;20493;-73
2022/08/30 04:58:51;;;;;;;8.18;4.20;;;;;;;16.56;79.46;101717.09;5034597;28;20106;-73
2022/08/30 05:01:22;;;;;;;8.07;5.22;;;;;;;16.52;79.64;101719.25;5033920;28;20036;-74
2022/08/30 05:03:49;;;;;;;7.55;3.50;;;;;;;16.55;79.60;101723.31;5034645;28;20068;-73
2022/08/30 05:06:15;;;;;;;6.53;3.42;;;;;;;16.56;79.63;101730.19;5036307;28;20143;-74
2022/08/30 05:08:41;;;;;;;6.53;3.83;;;;;;;16.54;79.67;101734.78;5036592;28;20378;-73
2022/08/30 05:11:08;;;;;;;7.70;3.35;;;;;;;16.57;79.64;101736.22;5037435;28;20037;-74
2022/08/30 05:13:35;;;;;;;4.90;3.70;;;;;;;16.58;79.69;101736.06;5018322;28;20554;-73
2022/08/30 05:16:02;;;;;;;9.05;3.80;;;;;;;16.63;79.49;101733.75;5031788;28;20090;-74
2022/08/30 05:18:27;;;;;;;7.22;4.10;;;;;;;16.64;79.53;101735.38;5032945;28;20041;-73
2022/08/30 05:21:03;;;;;;;5.68;4.40;;;;;;;16.68;79.25;101735.84;5031411;28;20595;-74
2022/08/30 05:23:28;;;;;;;6.35;3.58;;;;;;;16.66;79.16;101743.06;5034289;28;20072;-73
2022/08/30 05:25:54;;;;;;;6.55;3.30;;;;;;;16.70;79.46;101741.72;5037334;28;20032;-73
2022/08/30 05:28:19;;;;;;;9.15;3.83;;;;;;;16.68;79.34;101744.50;5034920;28;20037;-74
2022/08/30 05:30:45;;;;;;;6.90;3.75;;;;;;;16.82;79.23;101750.84;5037921;28;20045;-73
2022/08/30 05:33:10;;;;;;;5.72;3.88;;;;;;;16.79;78.90;101742.47;5038934;28;20032;-73
2022/08/30 05:35:37;;;;;;;8.50;3.85;;;;;;;16.79;79.04;101740.66;5036332;28;20421;-74
2022/08/30 05:38:02;;;;;;;8.45;3.33;;;;;;;16.82;78.86;101744.72;5036894;28;20115;-74
2022/08/30 05:40:28;;;;;;;7.75;3.65;;;;;;;16.82;79.22;101740.38;5051261;28;20211;-74
2022/08/30 05:42:53;;;;;;;12.50;4.45;;;;;;;16.92;78.36;101740.13;5037431;28;20291;-73
2022/08/30 05:45:19;;;;;;;8.52;4.78;;;;;;;17.00;78.08;101741.88;5017294;28;20022;-73
2022/08/30 05:47:46;;;;;;;10.82;4.28;;;;;;;16.92;78.53;101743.56;5020013;28;20486;-73
2022/08/30 05:50:12;;;;;;;9.23;4.50;;;;;;;16.91;78.83;101741.94;5051205;28;20041;-73
2022/08/30 05:52:39;;;;;;;8.23;3.65;;;;;;;16.97;78.65;101739.59;5025155;28;20268;-74
2022/08/30 05:55:06;;;;;;;7.43;4.05;;;;;;;16.99;78.63;101732.38;5035322;28;20025;-73
2022/08/30 05:57:37;;;;;;;6.75;4.00;;;;;;;17.06;77.99;101743.78;5036884;28;20032;-73
2022/08/30 06:00:09;;;;;;;11.80;4.05;;;;;;;17.07;78.01;101740.19;5033714;28;20039;-74
2022/08/30 06:02:37;;;;;;;8.07;4.18;;;;;;;17.20;77.77;101736.97;5032087;28;20403;-72
2022/08/30 06:05:03;;;;;;;8.18;3.70;;;;;;;17.15;77.79;101731.44;5030225;28;20029;-74
2022/08/30 06:07:29;;;;;;;12.40;4.53;;;;;;;17.20;77.69;101742.22;5019067;28;20052;-73
2022/08/30 06:09:55;;;;;;;8.55;4.13;;;;;;;17.28;77.27;101742.13;5035082;28;20029;-74
2022/08/30 06:12:20;;;;;;;12.50;4.30;;;;;;;17.35;76.67;101740.44;5017439;28;20037;-73
2022/08/30 06:14:46;;;;;;;14.32;4.38;;;;;;;17.45;76.31;101743.59;5034249;28;20113;-73
2022/08/30 06:17:11;;;;;;;8.85;4.85;;;;;;;17.47;75.86;101749.47;5038854;28;21543;-73
2022/08/30 06:19:37;;;;;;;9.85;4.70;;;;;;;17.49;76.13;101754.56;5036424;28;20043;-73
2022/08/30 06:22:02;;;;;;;11.02;4.78;;;;;;;17.56;76.05;101746.78;5034757;28;20051;-74
2022/08/30 06:24:28;;;;;;;8.20;4.60;;;;;;;17.64;75.35;101741.47;5031857;28;20040;-74
2022/08/30 06:26:53;;;;;;;9.93;4.68;;;;;;;17.73;74.19;101742.19;5036524;28;20397;-72
2022/08/30 06:29:20;;;;;;;9.20;4.25;;;;;;;17.70;74.54;101745.97;5036650;28;20033;-72
2022/08/30 06:31:46;;;;;;;9.70;4.90;;;;;;;17.73;74.60;101744.81;5033672;28;20039;-73
2022/08/30 06:34:11;;;;;;;10.07;5.05;;;;;;;17.73;75.05;101735.13;5034251;28;20033;-74
2022/08/30 06:36:37;;;;;;;14.10;4.43;;;;;;;17.77;74.03;101744.25;5034928;28;20037;-74
2022/08/30 06:39:04;;;;;;;8.15;4.88;;;;;;;17.88;73.44;101746.47;5019502;28;20032;-72
2022/08/30 06:41:32;;;;;;;8.00;4.18;;;;;;;18.03;73.40;101753.53;5033010;28;20043;-74
2022/08/30 06:44:00;;;;;;;23.67;12.27;;;;;;;18.13;73.27;101750.63;5033653;28;20076;-73
2022/08/30 06:46:28;;;;;;;11.43;5.05;;;;;;;18.34;73.03;101752.47;5035387;28;20070;-74
2022/08/30 06:48:55;;;;;;;13.98;4.22;;;;;;;18.56;72.44;101751.53;5041906;28;20036;-73
2022/08/30 06:51:28;;;;;;;6.07;4.35;;;;;;;18.58;70.24;101751.34;5035273;28;20507;-72
2022/08/30 06:53:54;;;;;;;11.63;4.90;;;;;;;18.70;69.79;101735.91;5037284;28;20029;-70
2022/08/30 06:56:21;;;;;;;9.38;4.10;;;;;;;18.94;69.60;101747.88;5038350;28;20429;-71
2022/08/30 06:58:47;;;;;;;13.60;3.88;;;;;;;18.96;68.77;101738.78;5038990;28;20301;-73
2022/08/30 07:01:16;;;;;;;13.80;4.25;;;;;;;19.40;67.41;101740.38;5038758;28;20025;-73
2022/08/30 07:03:42;;;;;;;13.57;4.32;;;;;;;19.20;67.10;101742.03;5039754;28;20025;-74
2022/08/30 07:06:08;;;;;;;6.90;3.70;;;;;;;19.38;66.89;101746.81;5039119;28;20083;-73
2022/08/30 07:08:34;;;;;;;8.68;3.58;;;;;;;19.77;65.62;101746.28;5037519;28;20039;-71
2022/08/30 07:11:01;;;;;;;7.00;3.67;;;;;;;20.00;64.43;101739.91;5040938;28;20116;-72
2022/08/30 07:13:27;;;;;;;12.18;3.65;;;;;;;20.33;63.86;101744.50;5039664;28;20132;-73
2022/08/30 07:15:52;;;;;;;7.28;3.50;;;;;;;20.12;64.68;101751.53;5039232;28;20104;-72
2022/08/30 07:21:15;;;;;;;8.05;3.83;;;;;;;19.54;66.39;101740.47;5037112;28;20125;-74
2022/08/30 07:23:41;;;;;;;8.55;3.00;;;;;;;19.51;67.30;101746.91;5038477;28;20064;-74
2022/08/30 07:26:11;;;;;;;10.32;4.72;;;;;;;19.70;66.08;101745.41;5039281;28;20065;-74
2022/08/30 07:28:38;;;;;;;7.90;3.40;;;;;;;19.92;65.47;101748.78;5039055;28;20172;-74
2022/08/30 07:31:04;;;;;;;8.32;4.45;;;;;;;20.02;64.96;101754.53;5024570;28;20037;-74
2022/08/30 07:33:30;;;;;;;8.50;2.85;;;;;;;20.16;65.42;101754.56;5036540;28;20036;-73
2022/08/30 07:35:55;;;;;;;7.32;3.92;;;;;;;20.34;64.30;101748.75;5039606;28;20025;-74
2022/08/30 07:38:21;;;;;;;14.20;5.07;;;;;;;20.31;64.40;101746.53;5040476;28;20037;-75
2022/08/30 07:40:46;;;;;;;8.98;3.60;;;;;;;20.27;64.54;101748.75;5037404;28;20029;-74
2022/08/30 07:43:12;;;;;;;8.57;3.38;;;;;;;20.16;65.07;101751.94;5037367;28;20033;-74
2022/08/30 07:45:37;;;;;;;8.23;3.35;;;;;;;20.19;65.29;101760.28;5036510;28;20025;-74
2022/08/30 07:48:04;;;;;;;10.07;4.00;;;;;;;20.00;64.85;101756.53;5037404;28;20043;-75
2022/08/30 07:50:30;;;;;;;14.52;4.57;;;;;;;20.05;64.53;101755.94;5037496;28;20038;-73
2022/08/30 07:52:56;;;;;;;6.80;3.40;;;;;;;19.91;65.38;101747.19;5036465;28;20045;-74
2022/08/30 07:55:21;;;;;;;9.88;4.07;;;;;;;19.88;66.07;101755.47;5036577;28;20401;-75
2022/08/30 07:57:47;;;;;;;8.63;4.10;;;;;;;19.96;65.35;101757.13;5037406;28;20045;-73
2022/08/30 08:00:13;;;;;;;9.85;3.20;;;;;;;20.60;63.14;101753.31;5038974;28;20024;-71
2022/08/30 08:02:40;;;;;;;7.85;3.58;;;;;;;20.86;61.89;101747.28;5041633;28;20394;-73
2022/08/30 08:05:07;;;;;;;6.85;3.88;;;;;;;20.71;61.40;101750.09;5037609;28;20037;-76
2022/08/30 08:07:33;;;;;;;9.38;3.58;;;;;;;20.65;62.37;101755.38;5023300;28;20048;-74
2022/08/30 08:09:59;;;;;;;8.55;3.83;;;;;;;20.72;62.93;101751.72;5039089;28;20033;-71
2022/08/30 08:12:24;;;;;;;8.80;3.78;;;;;;;21.12;60.62;101757.03;5041369;28;20495;-72
2022/08/30 08:14:50;;;;;;;9.57;3.97;;;;;;;21.53;59.68;101752.53;5037651;28;20092;-73
2022/08/30 08:17:15;;;;;;;7.45;3.35;;;;;;;22.08;58.90;101752.19;5036119;28;20043;-75
2022/08/30 08:19:41;;;;;;;8.88;4.15;;;;;;;21.71;58.04;101744.00;5040035;28;20029;-71
2022/08/30 08:22:06;;;;;;;6.82;3.53;;;;;;;21.71;58.25;101757.19;5042380;28;20028;-73
2022/08/30 08:24:32;;;;;;;7.57;4.18;;;;;;;21.69;58.06;101756.59;5042483;28;20426;-74
2022/08/30 08:26:57;;;;;;;7.45;3.75;;;;;;;21.55;59.03;101747.91;5041596;28;20264;-72
2022/08/30 08:29:23;;;;;;;7.80;3.72;;;;;;;21.51;59.93;101751.94;5040491;28;20047;-70
2022/08/30 08:31:48;;;;;;;7.53;3.33;;;;;;;21.45;60.55;101761.47;5040031;28;20033;-70
2022/08/30 08:34:14;;;;;;;5.80;3.25;;;;;;;21.60;58.69;101766.53;5041019;28;20104;-73
2022/08/30 08:36:40;;;;;;;10.45;3.80;;;;;;;21.49;58.53;101757.44;5036069;28;20037;-70
2022/08/30 08:39:08;;;;;;;20.20;4.70;;;;;;;21.99;57.94;101764.00;5040115;28;20040;-71
2022/08/30 08:41:57;;;;;;;5.78;2.92;;;;;;;22.68;57.12;101762.50;5035520;28;20039;-71
2022/08/30 08:44:32;;;;;;;6.32;2.65;;;;;;;23.42;54.67;101757.44;5042091;28;20057;-73
2022/08/30 08:47:33;;;;;;;8.23;3.08;;;;;;;23.11;55.02;101752.03;5041283;28;20091;-75
2022/08/30 08:50:02;;;;;;;10.73;3.17;;;;;;;23.02;55.36;101752.44;5036815;28;20546;-75
2022/08/30 08:55:55;;;;;;;8.43;4.25;;;;;;;23.75;53.06;101749.13;5020337;28;20552;-74
2022/08/30 08:58:25;;;;;;;7.63;2.63;;;;;;;23.59;53.68;101761.13;5040586;28;20049;-75
2022/08/30 09:00:52;;;;;;;8.10;3.03;;;;;;;23.37;54.09;101766.00;5020922;28;20029;-74
2022/08/30 09:03:20;;;;;;;11.35;2.75;;;;;;;23.23;54.04;101753.94;5039138;28;20551;-75
2022/08/30 09:05:46;;;;;;;9.05;3.50;;;;;;;23.49;53.48;101755.53;5037191;28;20120;-76
2022/08/30 09:08:15;;;;;;;11.15;3.17;;;;;;;23.68;52.14;101756.38;5037366;28;20072;-73
2022/08/30 09:10:56;;;;;;;7.13;2.53;;;;;;;23.88;53.07;101751.69;5037333;28;20057;-72
2022/08/30 09:13:23;;;;;;;13.60;2.95;;;;;;;23.79;53.27;101744.22;5041769;28;20044;-75
2022/08/30 09:15:50;;;;;;;11.30;3.47;;;;;;;23.54;52.46;101741.63;5035596;28;20029;-74
2022/08/30 09:18:17;;;;;;;5.35;2.67;;;;;;;23.85;52.86;101744.16;5038832;28;20036;-74
2022/08/30 09:20:53;;;;;;;12.48;3.28;;;;;;;23.59;52.43;101745.25;5037778;28;20491;-74
2022/08/30 09:23:31;;;;;;;7.70;3.05;;;;;;;23.84;52.64;101749.69;5053101;22;20122;-75
2022/08/30 09:26:04;;;;;;;9.32;2.90;;;;;;;23.64;51.79;101750.69;5004140;28;20052;-75
2022/08/30 09:28:31;;;;;;;7.57;2.60;;;;;;;23.69;52.44;101748.16;4997387;28;20030;-75
2022/08/30 09:31:16;;;;;;;7.10;2.80;;;;;;;23.82;51.95;101746.44;5015292;28;20022;-76
2022/08/30 09:33:53;;;;;;;4.82;2.50;;;;;;;24.06;51.76;101745.53;4998772;28;20608;-75
2022/08/30 09:36:25;;;;;;;7.80;2.40;;;;;;;24.04;51.37;101754.75;5037855;23;20039;-86
2022/08/30 09:39:19;;;;;;;12.30;2.33;;;;;;;23.94;50.90;101752.63;5056578;28;20060;-83
2022/08/30 09:41:48;;;;;;;11.73;3.38;;;;;;;23.81;50.92;101744.81;5061173;28;20108;-87
2022/08/30 09:44:20;;;;;;;5.32;2.17;;;;;;;23.96;51.41;101752.38;5066742;28;20078;-87
2022/08/30 09:46:50;;;;;;;9.00;3.20;;;;;;;24.17;49.59;101749.28;5081964;28;21642;-85
2022/08/30 09:49:35;;;;;;;7.05;2.67;;;;;;;23.61;49.63;101747.69;5066515;28;20103;-88
2022/08/30 09:52:16;;;;;;;4.05;2.38;;;;;;;23.57;50.55;101754.44;5062811;28;20445;-83
2022/08/30 09:54:58;;;;;;;3.75;2.00;;;;;;;23.55;51.30;101737.97;5056354;28;20095;-86
2022/08/30 09:57:47;;;;;;;9.15;3.45;;;;;;;23.60;51.48;101744.22;5069893;28;20064;-84
2022/08/30 10:00:22;;;;;;;6.03;2.03;;;;;;;23.62;51.04;101730.75;5054908;28;20024;-85
2022/08/30 10:03:12;;;;;;;10.93;3.47;;;;;;;23.56;51.15;101740.38;5054625;28;20058;-85
2022/08/30 10:05:50;;;;;;;5.80;2.20;;;;;;;23.67;51.08;101738.84;5083311;28;20024;-84
2022/08/30 10:08:32;;;;;;;7.55;2.60;;;;;;;23.73;50.49;101727.38;5045817;28;20753;-84
2022/08/30 10:11:04;;;;;;;7.45;2.58;;;;;;;23.78;50.61;101735.47;5048895;28;20032;-87
2022/08/30 10:13:50;;;;;;;6.80;2.45;;;;;;;23.89;50.06;101740.03;5054259;28;20102;-82
2022/08/30 10:16:25;;;;;;;7.30;2.28;;;;;;;24.01;50.61;101737.44;5060535;28;20066;-85
2022/08/30 10:19:15;;;;;;;5.47;2.70;;;;;;;24.18;49.97;101739.47;5067978;28;20040;-87
2022/08/30 10:22:02;;;;;;;9.18;2.70;;;;;;;24.38;48.69;101729.44;5068939;28;20419;-84
2022/08/30 10:24:37;;;;;;;7.32;2.00;;;;;;;24.47;49.89;101728.06;5053107;28;20071;-86
2022/08/30 10:27:14;;;;;;;11.73;3.15;;;;;;;24.57;48.87;101727.53;5052175;28;20746;-85
2022/08/30 10:29:47;;;;;;;10.10;2.60;;;;;;;24.45;49.30;101735.44;5050501;28;20544;-86
2022/08/30 10:32:27;;;;;;;11.35;2.05;;;;;;;24.36;48.55;101734.16;5068975;28;20145;-85
2022/08/30 10:35:21;;;;;;;5.95;2.45;;;;;;;24.36;48.98;101731.50;5052417;28;20597;-86
2022/08/30 10:37:53;;;;;;;4.38;2.08;;;;;;;24.49;48.86;101723.34;5066274;28;20086;-85
2022/08/30 10:43:22;;;;;;;9.10;2.40;;;;;;;24.25;49.04;101743.66;5066321;28;20119;-87
2022/08/30 10:45:50;;;;;;;8.52;2.40;;;;;;;24.46;48.11;101729.09;5065848;28;20028;-86
2022/08/30 10:48:25;;;;;;;7.18;2.35;;;;;;;24.54;48.24;101735.13;5045179;28;20174;-86
2022/08/30 10:50:55;;;;;;;5.13;2.00;;;;;;;24.47;47.65;101729.91;5067660;28;20055;-87
2022/08/30 10:53:29;;;;;;;7.07;1.98;;;;;;;24.42;48.40;101727.94;5067212;28;20575;-87
2022/08/30 10:56:06;;;;;;;7.60;2.40;;;;;;;24.41;48.17;101731.63;5051343;28;20032;-87
2022/08/30 10:58:32;;;;;;;4.78;1.95;;;;;;;24.43;48.37;101726.91;5049698;28;20034;-86
2022/08/30 11:01:06;;;;;;;22.23;3.22;;;;;;;24.40;48.08;101718.59;5066110;28;20027;-87
2022/08/30 11:03:50;;;;;;;6.70;2.17;;;;;;;24.32;48.83;101727.69;5061877;28;20497;-87
2022/08/30 11:06:44;;;;;;;3.90;1.80;;;;;;;24.49;47.47;101719.91;5051377;28;20113;-87
2022/08/30 11:10:06;;;;;;;3.80;2.08;;;;;;;24.75;47.36;101716.06;5048149;28;20094;-86
2022/08/30 11:12:48;;;;;;;5.68;1.88;;;;;;;24.72;47.05;101713.84;4976422;28;20034;-86
2022/08/30 11:15:18;;;;;;;6.82;2.00;;;;;;;24.95;46.88;101712.25;4988667;28;20474;-85
2022/08/30 11:18:10;;;;;;;6.25;2.40;;;;;;;24.84;46.11;101714.66;5021149;28;20445;-86
2022/08/30 11:20:38;;;;;;;7.72;2.17;;;;;;;25.05;46.09;101700.06;5068132;28;20082;-87
2022/08/30 11:23:24;;;;;;;4.90;1.92;;;;;;;25.29;45.98;101713.31;5050246;28;20044;-86
2022/08/30 11:26:00;;;;;;;4.97;1.77;;;;;;;25.17;45.29;101700.03;5051416;28;20032;-85
2022/08/30 11:28:59;;;;;;;6.25;1.95;;;;;;;24.82;44.89;101708.78;5048455;28;20040;-85
2022/08/30 11:31:32;;;;;;;5.82;2.03;;;;;;;24.98;45.63;101707.31;5066294;28;20036;-87
2022/08/30 11:33:59;;;;;;;3.25;1.92;;;;;;;25.03;44.93;101702.13;5057612;28;20085;-86
2022/08/30 11:36:27;;;;;;;8.43;2.55;;;;;;;25.31;45.66;101703.28;5071344;28;20137;-85
2022/08/30 11:38:53;;;;;;;6.00;1.55;;;;;;;25.35;45.22;101696.44;5055322;28;20123;-86
2022/08/30 11:42:07;;;;;;;6.50;2.17;;;;;;;25.64;44.61;101692.03;5054520;28;20162;-85
2022/08/30 11:44:33;;;;;;;4.93;2.10;;;;;;;25.69;44.15;101693.94;5065953;28;20101;-86